sensor_id;sensor_type;location;lat;lon;timestamp;temperature;humidity
21502;DHT22;27639;48.674;9.242;2023-07-24T00:01:15;24.20;49.10
21502;DHT22;27639;48.674;9.242;2023-07-24T00:03:40;24.20;49.00
21502;DHT22;27639;48.674;9.242;2023-07-24T00:06:06;24.20;49.10
21502;DHT22;27639;48.674;9.242;2023-07-24T00:08:32;24.20;49.00
21502;DHT22;27639;48.674;9.242;2023-07-24T00:10:57;24.20;49.00
21502;DHT22;27639;48.674;9.242;2023-07-24T00:13:23;24.20;49.20
21502;DHT22;27639;48.674;9.242;2023-07-24T00:15:48;24.20;49.00
21502;DHT22;27639;48.674;9.242;2023-07-24T00:18:14;24.10;48.80
21502;DHT22;27639;48.674;9.242;2023-07-24T00:20:40;24.20;48.90
21502;DHT22;27639;48.674;9.242;2023-07-24T00:23:05;24.30;48.80
21502;DHT22;27639;48.674;9.242;2023-07-24T00:25:31;24.20;48.70
21502;DHT22;27639;48.674;9.242;2023-07-24T00:27:56;24.20;48.70
21502;DHT22;27639;48.674;9.242;2023-07-24T00:30:22;24.20;48.70
21502;DHT22;27639;48.674;9.242;2023-07-24T00:32:47;24.20;48.80
21502;DHT22;27639;48.674;9.242;2023-07-24T00:35:13;24.20;48.70
21502;DHT22;27639;48.674;9.242;2023-07-24T00:37:38;24.20;48.70
21502;DHT22;27639;48.674;9.242;2023-07-24T00:40:04;24.10;48.60
21502;DHT22;27639;48.674;9.242;2023-07-24T00:42:30;24.10;48.40
21502;DHT22;27639;48.674;9.242;2023-07-24T00:44:56;24.10;48.60
21502;DHT22;27639;48.674;9.242;2023-07-24T00:47:22;24.10;48.60
21502;DHT22;27639;48.674;9.242;2023-07-24T00:49:48;24.10;48.30
21502;DHT22;27639;48.674;9.242;2023-07-24T00:52:15;24.10;48.60
21502;DHT22;27639;48.674;9.242;2023-07-24T00:54:41;24.10;48.50
21502;DHT22;27639;48.674;9.242;2023-07-24T00:57:07;24.10;48.40
21502;DHT22;27639;48.674;9.242;2023-07-24T00:59:33;24.00;48.30
21502;DHT22;27639;48.674;9.242;2023-07-24T01:01:59;24.00;48.20
21502;DHT22;27639;48.674;9.242;2023-07-24T01:04:25;24.00;48.40
21502;DHT22;27639;48.674;9.242;2023-07-24T01:06:50;24.00;48.30
21502;DHT22;27639;48.674;9.242;2023-07-24T01:09:16;24.00;47.70
21502;DHT22;27639;48.674;9.242;2023-07-24T01:11:52;24.00;47.40
21502;DHT22;27639;48.674;9.242;2023-07-24T01:16:59;23.80;47.30
21502;DHT22;27639;48.674;9.242;2023-07-24T01:19:40;23.80;47.40
21502;DHT22;27639;48.674;9.242;2023-07-24T01:22:37;23.70;47.30
21502;DHT22;27639;48.674;9.242;2023-07-24T01:27:56;23.60;47.50
21502;DHT22;27639;48.674;9.242;2023-07-24T01:30:22;23.50;47.70
21502;DHT22;27639;48.674;9.242;2023-07-24T01:32:48;23.50;47.80
21502;DHT22;27639;48.674;9.242;2023-07-24T01:35:14;23.50;47.70
21502;DHT22;27639;48.674;9.242;2023-07-24T01:37:40;23.60;47.90
21502;DHT22;27639;48.674;9.242;2023-07-24T01:40:07;23.70;47.90
21502;DHT22;27639;48.674;9.242;2023-07-24T01:42:34;23.70;47.90
21502;DHT22;27639;48.674;9.242;2023-07-24T01:45:01;23.70;47.80
21502;DHT22;27639;48.674;9.242;2023-07-24T01:47:27;23.70;47.70
21502;DHT22;27639;48.674;9.242;2023-07-24T01:49:52;23.70;47.70
21502;DHT22;27639;48.674;9.242;2023-07-24T01:52:18;23.70;47.80
21502;DHT22;27639;48.674;9.242;2023-07-24T01:54:43;23.60;48.40
21502;DHT22;27639;48.674;9.242;2023-07-24T01:57:09;23.60;47.80
21502;DHT22;27639;48.674;9.242;2023-07-24T01:59:35;23.60;47.90
21502;DHT22;27639;48.674;9.242;2023-07-24T02:02:00;23.50;48.10
21502;DHT22;27639;48.674;9.242;2023-07-24T02:04:26;23.40;48.10
21502;DHT22;27639;48.674;9.242;2023-07-24T02:06:51;23.40;48.30
21502;DHT22;27639;48.674;9.242;2023-07-24T02:09:20;23.40;48.30
21502;DHT22;27639;48.674;9.242;2023-07-24T02:11:46;23.40;48.50
21502;DHT22;27639;48.674;9.242;2023-07-24T02:14:12;23.40;48.50
21502;DHT22;27639;48.674;9.242;2023-07-24T02:16:39;23.40;48.60
21502;DHT22;27639;48.674;9.242;2023-07-24T02:19:05;23.40;48.50
21502;DHT22;27639;48.674;9.242;2023-07-24T02:21:31;23.40;48.70
21502;DHT22;27639;48.674;9.242;2023-07-24T02:23:56;23.40;48.60
21502;DHT22;27639;48.674;9.242;2023-07-24T02:26:22;23.30;48.70
21502;DHT22;27639;48.674;9.242;2023-07-24T02:28:47;23.20;48.80
21502;DHT22;27639;48.674;9.242;2023-07-24T02:31:13;23.20;48.90
21502;DHT22;27639;48.674;9.242;2023-07-24T02:33:38;23.20;48.90
21502;DHT22;27639;48.674;9.242;2023-07-24T02:36:04;23.20;49.00
21502;DHT22;27639;48.674;9.242;2023-07-24T02:38:30;23.20;49.10
21502;DHT22;27639;48.674;9.242;2023-07-24T02:40:55;23.10;49.00
21502;DHT22;27639;48.674;9.242;2023-07-24T02:43:21;23.10;49.00
21502;DHT22;27639;48.674;9.242;2023-07-24T02:45:46;23.10;49.00
21502;DHT22;27639;48.674;9.242;2023-07-24T02:48:12;23.10;49.00
21502;DHT22;27639;48.674;9.242;2023-07-24T02:50:37;23.10;49.20
21502;DHT22;27639;48.674;9.242;2023-07-24T02:53:03;23.00;49.30
21502;DHT22;27639;48.674;9.242;2023-07-24T02:55:29;23.00;49.30
21502;DHT22;27639;48.674;9.242;2023-07-24T02:57:55;22.90;49.50
21502;DHT22;27639;48.674;9.242;2023-07-24T03:00:20;22.80;49.50
21502;DHT22;27639;48.674;9.242;2023-07-24T03:02:46;22.70;49.50
21502;DHT22;27639;48.674;9.242;2023-07-24T03:05:12;22.70;49.70
21502;DHT22;27639;48.674;9.242;2023-07-24T03:07:37;22.70;49.60
21502;DHT22;27639;48.674;9.242;2023-07-24T03:10:03;22.70;49.60
21502;DHT22;27639;48.674;9.242;2023-07-24T03:12:29;22.70;49.70
21502;DHT22;27639;48.674;9.242;2023-07-24T03:14:54;22.70;49.90
21502;DHT22;27639;48.674;9.242;2023-07-24T03:17:20;22.70;49.90
21502;DHT22;27639;48.674;9.242;2023-07-24T03:19:47;22.60;49.90
21502;DHT22;27639;48.674;9.242;2023-07-24T03:22:13;22.60;50.10
21502;DHT22;27639;48.674;9.242;2023-07-24T03:24:38;22.60;50.10
21502;DHT22;27639;48.674;9.242;2023-07-24T03:27:04;22.60;50.10
21502;DHT22;27639;48.674;9.242;2023-07-24T03:29:30;22.50;50.10
21502;DHT22;27639;48.674;9.242;2023-07-24T03:31:56;22.50;50.10
21502;DHT22;27639;48.674;9.242;2023-07-24T03:34:21;22.50;50.00
21502;DHT22;27639;48.674;9.242;2023-07-24T03:36:47;22.50;49.90
21502;DHT22;27639;48.674;9.242;2023-07-24T03:39:12;22.50;50.00
21502;DHT22;27639;48.674;9.242;2023-07-24T03:41:39;22.50;50.00
21502;DHT22;27639;48.674;9.242;2023-07-24T03:44:04;22.40;49.90
21502;DHT22;27639;48.674;9.242;2023-07-24T03:46:32;22.40;50.00
21502;DHT22;27639;48.674;9.242;2023-07-24T03:48:57;22.40;50.00
21502;DHT22;27639;48.674;9.242;2023-07-24T03:51:23;22.40;50.10
21502;DHT22;27639;48.674;9.242;2023-07-24T03:53:49;22.50;50.10
21502;DHT22;27639;48.674;9.242;2023-07-24T03:56:14;22.50;50.10
21502;DHT22;27639;48.674;9.242;2023-07-24T03:58:40;22.50;49.80
21502;DHT22;27639;48.674;9.242;2023-07-24T04:01:06;22.40;50.60
21502;DHT22;27639;48.674;9.242;2023-07-24T04:03:32;22.40;50.10
21502;DHT22;27639;48.674;9.242;2023-07-24T04:05:57;22.40;50.30
21502;DHT22;27639;48.674;9.242;2023-07-24T04:08:23;22.30;50.40
21502;DHT22;27639;48.674;9.242;2023-07-24T04:10:48;22.30;50.40
21502;DHT22;27639;48.674;9.242;2023-07-24T04:13:14;22.20;50.70
21502;DHT22;27639;48.674;9.242;2023-07-24T04:15:39;22.30;50.90
21502;DHT22;27639;48.674;9.242;2023-07-24T04:18:05;22.20;50.90
21502;DHT22;27639;48.674;9.242;2023-07-24T04:20:31;22.30;51.00
21502;DHT22;27639;48.674;9.242;2023-07-24T04:22:56;22.30;51.00
21502;DHT22;27639;48.674;9.242;2023-07-24T04:25:22;22.40;51.10
21502;DHT22;27639;48.674;9.242;2023-07-24T04:27:48;22.60;51.30
21502;DHT22;27639;48.674;9.242;2023-07-24T04:30:13;22.80;51.30
21502;DHT22;27639;48.674;9.242;2023-07-24T04:32:39;23.00;50.90
21502;DHT22;27639;48.674;9.242;2023-07-24T04:35:05;23.20;50.30
21502;DHT22;27639;48.674;9.242;2023-07-24T04:37:31;23.30;49.90
21502;DHT22;27639;48.674;9.242;2023-07-24T04:39:56;23.40;49.60
21502;DHT22;27639;48.674;9.242;2023-07-24T04:42:22;23.30;49.50
21502;DHT22;27639;48.674;9.242;2023-07-24T04:44:47;23.30;49.90
21502;DHT22;27639;48.674;9.242;2023-07-24T04:47:15;23.30;49.90
21502;DHT22;27639;48.674;9.242;2023-07-24T04:49:41;23.30;50.00
21502;DHT22;27639;48.674;9.242;2023-07-24T04:52:06;23.30;50.00
21502;DHT22;27639;48.674;9.242;2023-07-24T04:54:32;23.30;50.00
21502;DHT22;27639;48.674;9.242;2023-07-24T04:56:57;23.40;50.00
21502;DHT22;27639;48.674;9.242;2023-07-24T04:59:23;23.40;49.80
21502;DHT22;27639;48.674;9.242;2023-07-24T05:01:49;23.40;49.70
21502;DHT22;27639;48.674;9.242;2023-07-24T05:04:15;23.50;49.90
21502;DHT22;27639;48.674;9.242;2023-07-24T05:06:40;23.40;50.00
21502;DHT22;27639;48.674;9.242;2023-07-24T05:09:06;23.40;50.00
21502;DHT22;27639;48.674;9.242;2023-07-24T05:11:32;23.50;49.90
21502;DHT22;27639;48.674;9.242;2023-07-24T05:13:57;23.50;49.90
21502;DHT22;27639;48.674;9.242;2023-07-24T05:16:23;23.50;49.90
21502;DHT22;27639;48.674;9.242;2023-07-24T05:18:48;23.60;49.90
21502;DHT22;27639;48.674;9.242;2023-07-24T05:21:14;23.60;49.90
21502;DHT22;27639;48.674;9.242;2023-07-24T05:23:40;23.60;50.10
21502;DHT22;27639;48.674;9.242;2023-07-24T05:26:05;23.60;50.10
21502;DHT22;27639;48.674;9.242;2023-07-24T05:28:32;23.60;50.10
21502;DHT22;27639;48.674;9.242;2023-07-24T05:31:02;23.70;49.90
21502;DHT22;27639;48.674;9.242;2023-07-24T05:33:28;23.70;50.20
21502;DHT22;27639;48.674;9.242;2023-07-24T05:36:03;23.70;50.40
21502;DHT22;27639;48.674;9.242;2023-07-24T05:38:30;23.70;49.80
21502;DHT22;27639;48.674;9.242;2023-07-24T05:41:02;23.70;49.90
21502;DHT22;27639;48.674;9.242;2023-07-24T05:43:29;23.60;49.70
21502;DHT22;27639;48.674;9.242;2023-07-24T05:45:56;23.60;50.10
21502;DHT22;27639;48.674;9.242;2023-07-24T05:48:23;23.60;50.40
21502;DHT22;27639;48.674;9.242;2023-07-24T05:50:48;23.50;50.40
21502;DHT22;27639;48.674;9.242;2023-07-24T05:53:15;23.60;50.60
21502;DHT22;27639;48.674;9.242;2023-07-24T05:55:41;23.60;50.60
21502;DHT22;27639;48.674;9.242;2023-07-24T05:58:08;23.60;50.60
21502;DHT22;27639;48.674;9.242;2023-07-24T06:00:34;23.70;50.60
21502;DHT22;27639;48.674;9.242;2023-07-24T06:02:59;23.70;50.50
21502;DHT22;27639;48.674;9.242;2023-07-24T06:05:25;23.80;50.60
21502;DHT22;27639;48.674;9.242;2023-07-24T06:07:50;23.80;50.40
21502;DHT22;27639;48.674;9.242;2023-07-24T06:10:16;23.80;50.30
21502;DHT22;27639;48.674;9.242;2023-07-24T06:12:41;23.90;50.40
21502;DHT22;27639;48.674;9.242;2023-07-24T06:15:07;23.90;50.30
21502;DHT22;27639;48.674;9.242;2023-07-24T06:17:33;23.90;50.40
21502;DHT22;27639;48.674;9.242;2023-07-24T06:19:58;24.00;50.40
21502;DHT22;27639;48.674;9.242;2023-07-24T06:22:24;24.00;50.50
21502;DHT22;27639;48.674;9.242;2023-07-24T06:24:50;24.00;50.80
21502;DHT22;27639;48.674;9.242;2023-07-24T06:27:16;24.10;50.90
21502;DHT22;27639;48.674;9.242;2023-07-24T06:29:41;24.00;51.00
21502;DHT22;27639;48.674;9.242;2023-07-24T06:32:07;24.00;51.00
21502;DHT22;27639;48.674;9.242;2023-07-24T06:34:33;24.00;51.50
21502;DHT22;27639;48.674;9.242;2023-07-24T06:36:59;23.90;51.80
21502;DHT22;27639;48.674;9.242;2023-07-24T06:39:25;23.90;52.10
21502;DHT22;27639;48.674;9.242;2023-07-24T06:41:54;23.90;51.90
21502;DHT22;27639;48.674;9.242;2023-07-24T06:44:20;23.80;52.00
21502;DHT22;27639;48.674;9.242;2023-07-24T06:46:45;23.80;52.10
21502;DHT22;27639;48.674;9.242;2023-07-24T06:49:11;23.80;52.40
21502;DHT22;27639;48.674;9.242;2023-07-24T06:51:36;23.80;52.30
21502;DHT22;27639;48.674;9.242;2023-07-24T06:54:04;23.80;52.30
21502;DHT22;27639;48.674;9.242;2023-07-24T06:56:29;23.80;52.50
21502;DHT22;27639;48.674;9.242;2023-07-24T06:58:55;23.90;52.40
21502;DHT22;27639;48.674;9.242;2023-07-24T07:01:20;23.90;52.30
21502;DHT22;27639;48.674;9.242;2023-07-24T07:03:46;23.90;52.10
21502;DHT22;27639;48.674;9.242;2023-07-24T07:06:11;24.00;52.10
21502;DHT22;27639;48.674;9.242;2023-07-24T07:08:37;24.00;52.10
21502;DHT22;27639;48.674;9.242;2023-07-24T07:11:03;24.10;52.20
21502;DHT22;27639;48.674;9.242;2023-07-24T07:13:29;24.20;52.20
21502;DHT22;27639;48.674;9.242;2023-07-24T07:15:55;24.20;52.20
21502;DHT22;27639;48.674;9.242;2023-07-24T07:18:21;24.30;52.30
21502;DHT22;27639;48.674;9.242;2023-07-24T07:20:47;24.30;52.40
21502;DHT22;27639;48.674;9.242;2023-07-24T07:23:14;24.40;52.00
21502;DHT22;27639;48.674;9.242;2023-07-24T07:25:39;24.40;51.80
21502;DHT22;27639;48.674;9.242;2023-07-24T07:28:05;24.40;51.70
21502;DHT22;27639;48.674;9.242;2023-07-24T07:30:31;24.50;51.60
21502;DHT22;27639;48.674;9.242;2023-07-24T07:32:56;24.50;51.50
21502;DHT22;27639;48.674;9.242;2023-07-24T07:35:22;24.60;51.50
21502;DHT22;27639;48.674;9.242;2023-07-24T07:37:48;24.60;51.50
21502;DHT22;27639;48.674;9.242;2023-07-24T07:40:13;24.60;51.60
21502;DHT22;27639;48.674;9.242;2023-07-24T07:42:39;24.80;51.60
21502;DHT22;27639;48.674;9.242;2023-07-24T07:45:05;24.80;51.60
21502;DHT22;27639;48.674;9.242;2023-07-24T07:47:30;24.90;51.60
21502;DHT22;27639;48.674;9.242;2023-07-24T07:49:56;24.90;52.40
21502;DHT22;27639;48.674;9.242;2023-07-24T07:52:21;24.90;51.80
21502;DHT22;27639;48.674;9.242;2023-07-24T07:54:48;25.00;51.70
21502;DHT22;27639;48.674;9.242;2023-07-24T07:57:14;25.00;51.80
21502;DHT22;27639;48.674;9.242;2023-07-24T07:59:40;25.10;51.80
21502;DHT22;27639;48.674;9.242;2023-07-24T08:02:06;25.10;51.70
21502;DHT22;27639;48.674;9.242;2023-07-24T08:04:31;25.20;51.60
21502;DHT22;27639;48.674;9.242;2023-07-24T08:06:57;25.20;51.60
21502;DHT22;27639;48.674;9.242;2023-07-24T08:09:23;25.30;51.50
21502;DHT22;27639;48.674;9.242;2023-07-24T08:11:50;25.40;51.50
21502;DHT22;27639;48.674;9.242;2023-07-24T08:14:16;25.40;51.50
21502;DHT22;27639;48.674;9.242;2023-07-24T08:16:42;25.40;51.50
21502;DHT22;27639;48.674;9.242;2023-07-24T08:19:08;25.40;52.20
21502;DHT22;27639;48.674;9.242;2023-07-24T08:21:33;25.40;51.70
21502;DHT22;27639;48.674;9.242;2023-07-24T08:23:59;25.40;52.20
21502;DHT22;27639;48.674;9.242;2023-07-24T08:26:25;25.30;52.40
21502;DHT22;27639;48.674;9.242;2023-07-24T08:28:52;25.30;52.70
21502;DHT22;27639;48.674;9.242;2023-07-24T08:31:17;25.20;53.10
21502;DHT22;27639;48.674;9.242;2023-07-24T08:33:43;25.20;53.30
21502;DHT22;27639;48.674;9.242;2023-07-24T08:36:09;25.20;53.60
21502;DHT22;27639;48.674;9.242;2023-07-24T08:38:35;25.10;53.80
21502;DHT22;27639;48.674;9.242;2023-07-24T08:41:05;25.10;54.00
21502;DHT22;27639;48.674;9.242;2023-07-24T08:43:31;25.10;54.20
21502;DHT22;27639;48.674;9.242;2023-07-24T08:45:58;25.10;54.40
21502;DHT22;27639;48.674;9.242;2023-07-24T08:48:32;25.00;54.60
21502;DHT22;27639;48.674;9.242;2023-07-24T08:51:02;25.00;54.80
21502;DHT22;27639;48.674;9.242;2023-07-24T08:53:29;25.00;55.00
21502;DHT22;27639;48.674;9.242;2023-07-24T08:55:56;25.00;55.10
21502;DHT22;27639;48.674;9.242;2023-07-24T08:58:22;25.00;55.00
21502;DHT22;27639;48.674;9.242;2023-07-24T09:00:48;25.00;55.00
21502;DHT22;27639;48.674;9.242;2023-07-24T09:03:13;25.00;55.00
21502;DHT22;27639;48.674;9.242;2023-07-24T09:05:39;25.00;55.00
21502;DHT22;27639;48.674;9.242;2023-07-24T09:08:04;25.00;55.10
21502;DHT22;27639;48.674;9.242;2023-07-24T09:10:30;24.90;55.30
21502;DHT22;27639;48.674;9.242;2023-07-24T09:12:55;25.00;55.50
21502;DHT22;27639;48.674;9.242;2023-07-24T09:15:21;25.00;55.40
21502;DHT22;27639;48.674;9.242;2023-07-24T09:17:51;25.00;55.10
21502;DHT22;27639;48.674;9.242;2023-07-24T09:20:17;24.90;55.10
21502;DHT22;27639;48.674;9.242;2023-07-24T09:22:50;24.90;55.10
21502;DHT22;27639;48.674;9.242;2023-07-24T09:25:16;25.00;55.20
21502;DHT22;27639;48.674;9.242;2023-07-24T09:27:41;24.90;55.00
21502;DHT22;27639;48.674;9.242;2023-07-24T09:30:14;24.90;55.00
21502;DHT22;27639;48.674;9.242;2023-07-24T09:32:41;25.00;54.80
21502;DHT22;27639;48.674;9.242;2023-07-24T09:35:16;25.00;54.60
21502;DHT22;27639;48.674;9.242;2023-07-24T09:37:43;25.00;54.40
21502;DHT22;27639;48.674;9.242;2023-07-24T09:40:09;25.00;55.20
21502;DHT22;27639;48.674;9.242;2023-07-24T09:42:36;25.00;54.40
21502;DHT22;27639;48.674;9.242;2023-07-24T09:45:03;25.00;54.40
21502;DHT22;27639;48.674;9.242;2023-07-24T09:47:29;25.00;54.40
21502;DHT22;27639;48.674;9.242;2023-07-24T09:49:55;25.10;54.40
21502;DHT22;27639;48.674;9.242;2023-07-24T09:52:21;25.10;54.40
21502;DHT22;27639;48.674;9.242;2023-07-24T09:55:18;25.10;54.40
21502;DHT22;27639;48.674;9.242;2023-07-24T09:57:45;25.10;54.40
21502;DHT22;27639;48.674;9.242;2023-07-24T10:00:12;25.10;54.60
21502;DHT22;27639;48.674;9.242;2023-07-24T10:02:38;25.20;54.70
21502;DHT22;27639;48.674;9.242;2023-07-24T10:05:05;25.20;54.80
21502;DHT22;27639;48.674;9.242;2023-07-24T10:07:31;25.20;55.20
21502;DHT22;27639;48.674;9.242;2023-07-24T10:09:57;25.20;55.10
21502;DHT22;27639;48.674;9.242;2023-07-24T10:12:23;25.20;55.10
21502;DHT22;27639;48.674;9.242;2023-07-24T10:14:54;25.20;55.50
21502;DHT22;27639;48.674;9.242;2023-07-24T10:17:39;25.20;55.80
21502;DHT22;27639;48.674;9.242;2023-07-24T10:20:07;25.20;56.20
21502;DHT22;27639;48.674;9.242;2023-07-24T10:22:33;25.10;56.60
21502;DHT22;27639;48.674;9.242;2023-07-24T10:24:59;25.10;56.50
21502;DHT22;27639;48.674;9.242;2023-07-24T10:27:24;25.00;56.50
21502;DHT22;27639;48.674;9.242;2023-07-24T10:30:04;25.00;56.50
21502;DHT22;27639;48.674;9.242;2023-07-24T10:32:30;25.00;56.70
21502;DHT22;27639;48.674;9.242;2023-07-24T10:35:06;25.00;57.10
21502;DHT22;27639;48.674;9.242;2023-07-24T10:37:34;24.90;57.50
21502;DHT22;27639;48.674;9.242;2023-07-24T10:40:00;24.80;58.00
21502;DHT22;27639;48.674;9.242;2023-07-24T10:42:25;24.70;58.40
21502;DHT22;27639;48.674;9.242;2023-07-24T10:45:03;24.60;58.60
21502;DHT22;27639;48.674;9.242;2023-07-24T10:47:29;24.50;58.70
21502;DHT22;27639;48.674;9.242;2023-07-24T10:49:57;24.40;58.90
21502;DHT22;27639;48.674;9.242;2023-07-24T10:52:32;24.30;59.10
21502;DHT22;27639;48.674;9.242;2023-07-24T10:55:02;24.20;59.20
21502;DHT22;27639;48.674;9.242;2023-07-24T10:57:31;24.20;59.50
21502;DHT22;27639;48.674;9.242;2023-07-24T10:59:59;24.10;59.90
21502;DHT22;27639;48.674;9.242;2023-07-24T11:02:25;24.10;60.20
21502;DHT22;27639;48.674;9.242;2023-07-24T11:04:51;24.00;60.20
21502;DHT22;27639;48.674;9.242;2023-07-24T11:07:17;23.90;60.80
21502;DHT22;27639;48.674;9.242;2023-07-24T11:09:43;23.80;60.70
21502;DHT22;27639;48.674;9.242;2023-07-24T11:12:12;23.70;60.80
21502;DHT22;27639;48.674;9.242;2023-07-24T11:14:51;23.60;61.20
21502;DHT22;27639;48.674;9.242;2023-07-24T11:17:19;23.50;61.00
21502;DHT22;27639;48.674;9.242;2023-07-24T11:19:45;23.50;61.50
21502;DHT22;27639;48.674;9.242;2023-07-24T11:22:11;23.40;61.50
21502;DHT22;27639;48.674;9.242;2023-07-24T11:24:46;23.40;61.60
21502;DHT22;27639;48.674;9.242;2023-07-24T11:27:14;23.30;61.80
21502;DHT22;27639;48.674;9.242;2023-07-24T11:29:41;23.20;62.00
21502;DHT22;27639;48.674;9.242;2023-07-24T11:32:07;23.20;62.50
21502;DHT22;27639;48.674;9.242;2023-07-24T11:34:33;23.10;62.80
21502;DHT22;27639;48.674;9.242;2023-07-24T11:36:59;23.10;62.70
21502;DHT22;27639;48.674;9.242;2023-07-24T11:39:25;23.10;62.90
21502;DHT22;27639;48.674;9.242;2023-07-24T11:41:51;23.10;63.00
21502;DHT22;27639;48.674;9.242;2023-07-24T11:44:27;23.10;63.30
21502;DHT22;27639;48.674;9.242;2023-07-24T11:47:03;23.00;63.80
21502;DHT22;27639;48.674;9.242;2023-07-24T11:49:30;23.10;64.30
21502;DHT22;27639;48.674;9.242;2023-07-24T11:52:04;23.20;65.00
21502;DHT22;27639;48.674;9.242;2023-07-24T11:54:29;23.20;65.00
21502;DHT22;27639;48.674;9.242;2023-07-24T11:56:55;23.30;66.10
21502;DHT22;27639;48.674;9.242;2023-07-24T11:59:21;23.30;65.30
21502;DHT22;27639;48.674;9.242;2023-07-24T12:01:47;23.30;65.00
21502;DHT22;27639;48.674;9.242;2023-07-24T12:04:14;23.40;64.90
21502;DHT22;27639;48.674;9.242;2023-07-24T12:06:40;23.50;64.50
21502;DHT22;27639;48.674;9.242;2023-07-24T12:09:06;23.60;64.30
21502;DHT22;27639;48.674;9.242;2023-07-24T12:11:32;23.60;64.50
21502;DHT22;27639;48.674;9.242;2023-07-24T12:13:58;23.80;65.00
21502;DHT22;27639;48.674;9.242;2023-07-24T12:16:24;23.80;65.30
21502;DHT22;27639;48.674;9.242;2023-07-24T12:18:49;24.00;65.60
21502;DHT22;27639;48.674;9.242;2023-07-24T12:21:15;24.00;65.70
21502;DHT22;27639;48.674;9.242;2023-07-24T12:23:40;24.10;66.50
21502;DHT22;27639;48.674;9.242;2023-07-24T12:26:06;24.20;66.50
21502;DHT22;27639;48.674;9.242;2023-07-24T12:28:32;24.20;66.50
21502;DHT22;27639;48.674;9.242;2023-07-24T12:30:58;24.40;66.00
21502;DHT22;27639;48.674;9.242;2023-07-24T12:33:24;24.50;65.70
21502;DHT22;27639;48.674;9.242;2023-07-24T12:35:52;24.60;65.00
21502;DHT22;27639;48.674;9.242;2023-07-24T12:38:18;24.70;64.40
21502;DHT22;27639;48.674;9.242;2023-07-24T12:40:44;24.70;64.60
21502;DHT22;27639;48.674;9.242;2023-07-24T12:43:10;24.80;64.30
21502;DHT22;27639;48.674;9.242;2023-07-24T12:45:35;24.90;63.70
21502;DHT22;27639;48.674;9.242;2023-07-24T12:48:01;24.80;62.60
21502;DHT22;27639;48.674;9.242;2023-07-24T12:50:26;24.80;62.70
21502;DHT22;27639;48.674;9.242;2023-07-24T12:52:52;24.90;61.70
21502;DHT22;27639;48.674;9.242;2023-07-24T12:55:17;24.90;62.00
21502;DHT22;27639;48.674;9.242;2023-07-24T12:57:43;25.00;61.60
21502;DHT22;27639;48.674;9.242;2023-07-24T13:00:10;25.00;60.80
21502;DHT22;27639;48.674;9.242;2023-07-24T13:02:35;25.00;60.80
21502;DHT22;27639;48.674;9.242;2023-07-24T13:05:01;25.10;60.70
21502;DHT22;27639;48.674;9.242;2023-07-24T13:07:26;25.10;60.70
21502;DHT22;27639;48.674;9.242;2023-07-24T13:09:54;25.20;60.90
21502;DHT22;27639;48.674;9.242;2023-07-24T13:12:19;25.20;60.30
21502;DHT22;27639;48.674;9.242;2023-07-24T13:14:45;25.20;59.70
21502;DHT22;27639;48.674;9.242;2023-07-24T13:17:10;25.20;59.90
21502;DHT22;27639;48.674;9.242;2023-07-24T13:19:36;25.20;59.10
21502;DHT22;27639;48.674;9.242;2023-07-24T13:22:02;25.20;59.00
21502;DHT22;27639;48.674;9.242;2023-07-24T13:24:27;25.10;58.60
21502;DHT22;27639;48.674;9.242;2023-07-24T13:26:53;25.20;58.70
21502;DHT22;27639;48.674;9.242;2023-07-24T13:29:19;25.20;58.90
21502;DHT22;27639;48.674;9.242;2023-07-24T13:31:44;25.20;58.40
21502;DHT22;27639;48.674;9.242;2023-07-24T13:34:10;25.20;58.00
21502;DHT22;27639;48.674;9.242;2023-07-24T13:36:35;25.10;57.80
21502;DHT22;27639;48.674;9.242;2023-07-24T13:39:01;25.10;57.50
21502;DHT22;27639;48.674;9.242;2023-07-24T13:41:27;25.10;57.30
21502;DHT22;27639;48.674;9.242;2023-07-24T13:43:52;25.20;57.10
21502;DHT22;27639;48.674;9.242;2023-07-24T13:46:18;25.20;56.90
21502;DHT22;27639;48.674;9.242;2023-07-24T13:48:43;25.20;56.70
21502;DHT22;27639;48.674;9.242;2023-07-24T13:51:09;25.20;56.40
21502;DHT22;27639;48.674;9.242;2023-07-24T13:53:34;25.20;56.50
21502;DHT22;27639;48.674;9.242;2023-07-24T13:56:00;25.30;56.50
21502;DHT22;27639;48.674;9.242;2023-07-24T13:58:26;25.30;56.40
21502;DHT22;27639;48.674;9.242;2023-07-24T14:00:52;25.40;56.10
21502;DHT22;27639;48.674;9.242;2023-07-24T14:03:17;25.30;55.80
21502;DHT22;27639;48.674;9.242;2023-07-24T14:05:43;25.40;55.90
21502;DHT22;27639;48.674;9.242;2023-07-24T14:08:09;25.40;55.80
21502;DHT22;27639;48.674;9.242;2023-07-24T14:10:34;25.40;55.80
21502;DHT22;27639;48.674;9.242;2023-07-24T14:13:00;25.40;55.70
21502;DHT22;27639;48.674;9.242;2023-07-24T14:15:26;25.40;55.80
21502;DHT22;27639;48.674;9.242;2023-07-24T14:17:51;25.50;55.80
21502;DHT22;27639;48.674;9.242;2023-07-24T14:20:17;25.50;55.80
21502;DHT22;27639;48.674;9.242;2023-07-24T14:22:43;25.50;55.80
21502;DHT22;27639;48.674;9.242;2023-07-24T14:25:09;25.60;56.00
21502;DHT22;27639;48.674;9.242;2023-07-24T14:27:34;25.60;56.20
21502;DHT22;27639;48.674;9.242;2023-07-24T14:30:00;25.60;56.00
21502;DHT22;27639;48.674;9.242;2023-07-24T14:32:26;25.60;56.00
21502;DHT22;27639;48.674;9.242;2023-07-24T14:34:52;25.60;55.90
21502;DHT22;27639;48.674;9.242;2023-07-24T14:37:18;25.70;55.90
21502;DHT22;27639;48.674;9.242;2023-07-24T14:39:44;25.70;55.90
21502;DHT22;27639;48.674;9.242;2023-07-24T14:42:13;25.50;55.80
21502;DHT22;27639;48.674;9.242;2023-07-24T14:44:38;25.50;56.10
21502;DHT22;27639;48.674;9.242;2023-07-24T14:47:04;25.60;55.90
21502;DHT22;27639;48.674;9.242;2023-07-24T14:49:30;25.70;55.90
21502;DHT22;27639;48.674;9.242;2023-07-24T14:51:56;25.70;56.00
21502;DHT22;27639;48.674;9.242;2023-07-24T14:54:21;25.80;55.50
21502;DHT22;27639;48.674;9.242;2023-07-24T14:56:47;25.70;55.50
21502;DHT22;27639;48.674;9.242;2023-07-24T14:59:13;25.80;55.20
21502;DHT22;27639;48.674;9.242;2023-07-24T15:01:38;25.70;54.30
21502;DHT22;27639;48.674;9.242;2023-07-24T15:04:04;25.70;54.60
21502;DHT22;27639;48.674;9.242;2023-07-24T15:06:29;25.70;54.50
21502;DHT22;27639;48.674;9.242;2023-07-24T15:08:57;25.70;54.40
21502;DHT22;27639;48.674;9.242;2023-07-24T15:11:23;25.60;54.30
21502;DHT22;27639;48.674;9.242;2023-07-24T15:13:50;25.50;54.50
21502;DHT22;27639;48.674;9.242;2023-07-24T15:16:16;25.50;54.70
21502;DHT22;27639;48.674;9.242;2023-07-24T15:18:42;25.40;54.90
21502;DHT22;27639;48.674;9.242;2023-07-24T15:21:08;25.40;55.00
21502;DHT22;27639;48.674;9.242;2023-07-24T15:23:34;25.40;55.30
21502;DHT22;27639;48.674;9.242;2023-07-24T15:26:00;25.40;55.30
21502;DHT22;27639;48.674;9.242;2023-07-24T15:28:25;25.30;55.20
21502;DHT22;27639;48.674;9.242;2023-07-24T15:30:51;25.20;55.00